This is the latest recevied weather packets stored in our database for station/object KI4BIY. If no packets are shown the sender has not sent any weather packets the latest 10 day(s).
| Time | Temp. | Humidity | Pressure | Rain* | Wind** | Luminosity | Snow |
|---|---|---|---|---|---|---|---|
| 1777512720 | 16.11° C | 85% | 1013.7 hPa | 0 mm | - | 0 W/m² | - |
| 1777512417 | 16.11° C | 85% | 1013.5 hPa | 0 mm | - | 0 W/m² | - |
| 1777512114 | 16.11° C | 85% | 1013.4 hPa | 0 mm | - | 0 W/m² | - |
| 1777511813 | 16.11° C | 84% | 1013.3 hPa | 0 mm | - | 0 W/m² | - |
| 1777511509 | 16.67° C | 85% | 1013.4 hPa | 0 mm | - | 0 W/m² | - |
| 1777511206 | 16.67° C | 84% | 1013.3 hPa | 0 mm | - | 0 W/m² | - |
| 1777510902 | 16.67° C | 84% | 1013.3 hPa | 0 mm | - | 0 W/m² | - |
| 1777510598 | 17.22° C | 84% | 1013.4 hPa | 0 mm | - | 0 W/m² | - |
| 1777510295 | 17.22° C | 82% | 1013.4 hPa | 0 mm | - | 0 W/m² | - |
| 1777509992 | 17.22° C | 83% | 1013.2 hPa | 0 mm | - | 0 W/m² | - |
| 1777509687 | 17.22° C | 82% | 1013.2 hPa | 0 mm | - | 0 W/m² | - |
| 1777509384 | 17.22° C | 83% | 1013.2 hPa | 0 mm | - | 0 W/m² | - |
| 1777509082 | 17.22° C | 82% | 1013 hPa | 0 mm | - | 2 W/m² | - |
| 1777508778 | 17.78° C | 81% | 1012.6 hPa | 0 mm | - | 4 W/m² | - |
| 1777508475 | 17.78° C | 80% | 1012.4 hPa | 0 mm | - | 5 W/m² | - |
| 1777508172 | 17.78° C | 80% | 1012.5 hPa | 0 mm | - | 4 W/m² | - |
| 1777507869 | 17.78° C | 81% | 1012.4 hPa | 0 mm | - | 6 W/m² | - |
| 1777507566 | 17.78° C | 81% | 1012.2 hPa | 0 mm | - | 9 W/m² | - |
| 1777507263 | 17.78° C | 81% | 1012.1 hPa | 0 mm | - | 14 W/m² | - |
| 1777506960 | 17.78° C | 81% | 1011.8 hPa | 0 mm | - | 19 W/m² | - |
| 1777506658 | 18.33° C | 83% | 1011.6 hPa | 0 mm | - | 26 W/m² | - |
| 1777506354 | 18.33° C | 80% | 1011.6 hPa | 0 mm | - | 26 W/m² | - |
| 1777506049 | 18.33° C | 82% | 1011.8 hPa | 0 mm | - | 26 W/m² | - |
| 1777505745 | 18.33° C | 81% | 1011.5 hPa | 0 mm | - | 35 W/m² | - |
| 1777505443 | 18.33° C | 82% | 1011.6 hPa | 0 mm | - | 34 W/m² | - |
* Rain latest hour (hover to see other rain measurements)
** Current wind speed in m/s (hover to see current wind gust speed)